createdAt,value
2018-07-03T00:00:43.857Z,0.00
2018-07-03T00:01:43.774Z,0.00
2018-07-03T00:02:43.709Z,0.00
2018-07-03T00:03:43.625Z,0.00
2018-07-03T00:04:43.552Z,0.00
2018-07-03T00:05:43.471Z,0.00
2018-07-03T00:06:43.400Z,0.00
2018-07-03T00:07:43.320Z,0.00
2018-07-03T00:08:43.251Z,0.00
2018-07-03T00:09:43.171Z,0.00
2018-07-03T00:10:43.103Z,0.00
2018-07-03T00:11:43.017Z,0.00
2018-07-03T00:12:42.945Z,0.00
2018-07-03T00:13:42.863Z,0.00
2018-07-03T00:14:42.796Z,0.00
2018-07-03T00:15:42.716Z,0.00
2018-07-03T00:16:42.643Z,0.00
2018-07-03T00:17:42.561Z,0.00
2018-07-03T00:18:42.495Z,0.00
2018-07-03T00:19:42.409Z,0.00
2018-07-03T00:20:42.341Z,0.00
2018-07-03T00:21:42.258Z,0.00
2018-07-03T00:22:42.186Z,0.00
2018-07-03T00:23:42.102Z,0.00
2018-07-03T00:24:42.083Z,0.00
2018-07-03T00:25:41.951Z,0.00
2018-07-03T00:26:41.884Z,0.00
2018-07-03T00:27:41.806Z,0.00
2018-07-03T00:28:41.732Z,0.00
2018-07-03T00:29:41.646Z,0.00
2018-07-03T00:30:41.580Z,0.00
2018-07-03T00:31:41.495Z,0.00
2018-07-03T00:32:41.428Z,0.00
2018-07-03T00:33:41.341Z,0.00
2018-07-03T00:34:41.277Z,0.00
2018-07-03T00:35:41.192Z,0.00
2018-07-03T00:36:41.127Z,0.00
2018-07-03T00:37:41.040Z,0.00
2018-07-03T00:38:40.969Z,0.00
2018-07-03T00:39:40.886Z,0.00
2018-07-03T00:40:40.813Z,0.00
2018-07-03T00:41:40.733Z,0.00
2018-07-03T00:42:40.670Z,0.00
2018-07-03T00:43:40.579Z,0.00
2018-07-03T00:44:40.509Z,0.00
2018-07-03T00:45:40.427Z,0.00
2018-07-03T00:46:40.357Z,0.00
2018-07-03T00:47:40.275Z,0.00
2018-07-03T00:48:40.209Z,0.00
2018-07-03T00:49:40.122Z,0.00
2018-07-03T00:50:40.053Z,0.00
2018-07-03T00:51:39.971Z,0.00
2018-07-03T00:52:39.901Z,0.00
2018-07-03T00:53:39.820Z,0.00
2018-07-03T00:54:39.749Z,0.00
2018-07-03T00:55:39.667Z,0.00
2018-07-03T00:56:39.596Z,0.00
2018-07-03T00:57:39.512Z,0.00
2018-07-03T00:58:39.452Z,0.00
2018-07-03T00:59:39.359Z,0.00
2018-07-03T01:00:39.291Z,0.00
2018-07-03T01:01:39.206Z,0.00
2018-07-03T01:02:39.145Z,0.00
2018-07-03T01:03:39.053Z,0.00
2018-07-03T01:04:38.982Z,0.00
2018-07-03T01:05:38.898Z,0.00
2018-07-03T01:06:38.835Z,0.00
2018-07-03T01:07:38.746Z,0.00
2018-07-03T01:08:38.679Z,0.00
2018-07-03T01:09:38.598Z,0.00
2018-07-03T01:10:38.521Z,0.00
2018-07-03T01:11:38.441Z,0.00
2018-07-03T01:12:38.381Z,0.00
2018-07-03T01:13:38.288Z,0.00
2018-07-03T01:14:38.223Z,0.00
2018-07-03T01:15:38.135Z,0.00
2018-07-03T01:16:38.070Z,0.00
2018-07-03T01:17:37.983Z,0.00
2018-07-03T01:18:37.909Z,0.00
2018-07-03T01:19:37.831Z,0.00
2018-07-03T01:20:37.758Z,0.00
2018-07-03T01:21:37.676Z,0.00
2018-07-03T01:22:37.607Z,0.00
2018-07-03T01:23:37.524Z,0.00
2018-07-03T01:24:37.455Z,0.00
2018-07-03T01:25:37.371Z,0.00
2018-07-03T01:26:37.304Z,0.00
2018-07-03T01:27:37.220Z,0.00
2018-07-03T01:28:37.148Z,0.00
2018-07-03T01:29:37.062Z,0.00
2018-07-03T01:30:36.994Z,0.00
2018-07-03T01:31:36.914Z,0.00
2018-07-03T01:32:36.844Z,0.00
2018-07-03T01:33:36.757Z,0.00
2018-07-03T01:34:36.689Z,0.00
2018-07-03T01:35:36.609Z,0.00
2018-07-03T01:36:36.534Z,0.00
2018-07-03T01:37:36.452Z,0.00
2018-07-03T01:38:36.387Z,0.00
2018-07-03T01:39:36.301Z,0.00
2018-07-03T01:40:36.226Z,0.00
2018-07-03T01:41:36.145Z,0.00
2018-07-03T01:42:36.077Z,0.00
2018-07-03T01:43:35.992Z,0.00
2018-07-03T01:44:35.921Z,0.00
2018-07-03T01:45:35.837Z,0.00
2018-07-03T01:46:35.769Z,0.00
2018-07-03T01:47:35.685Z,0.00
2018-07-03T01:48:35.616Z,0.00
2018-07-03T01:49:35.532Z,0.00
2018-07-03T01:50:35.462Z,0.00
2018-07-03T01:51:35.379Z,0.00
2018-07-03T01:52:35.309Z,0.00
2018-07-03T01:53:35.225Z,0.00
2018-07-03T01:54:35.155Z,0.00
2018-07-03T01:55:35.071Z,0.00
2018-07-03T01:56:35.002Z,0.00
2018-07-03T01:57:34.918Z,0.00
2018-07-03T01:58:34.850Z,0.00
2018-07-03T01:59:34.765Z,0.00
2018-07-03T02:00:34.695Z,0.00
2018-07-03T02:01:34.613Z,0.00
2018-07-03T02:02:34.541Z,0.00
2018-07-03T02:03:34.457Z,0.00
2018-07-03T02:04:34.388Z,0.00
2018-07-03T02:05:34.302Z,0.00
2018-07-03T02:06:34.234Z,0.00
2018-07-03T02:07:34.150Z,0.00
2018-07-03T02:08:34.078Z,0.00
2018-07-03T02:09:33.995Z,0.00
2018-07-03T02:10:33.927Z,0.00
2018-07-03T02:11:33.841Z,0.00
2018-07-03T02:12:33.773Z,0.00
2018-07-03T02:13:33.692Z,0.00
2018-07-03T02:14:33.620Z,0.00
2018-07-03T02:15:33.535Z,0.00
2018-07-03T02:16:33.468Z,0.00
2018-07-03T02:17:33.384Z,0.00
2018-07-03T02:18:33.314Z,0.00
2018-07-03T02:19:33.227Z,0.00
2018-07-03T02:20:33.165Z,0.00
2018-07-03T02:21:33.076Z,0.00
2018-07-03T02:22:33.010Z,0.00
2018-07-03T02:23:32.919Z,0.00
2018-07-03T02:24:32.850Z,0.00
2018-07-03T02:25:32.766Z,0.00
2018-07-03T02:26:32.696Z,0.00
2018-07-03T02:27:32.612Z,0.00
2018-07-03T02:28:32.546Z,0.00
2018-07-03T02:29:32.457Z,0.00
2018-07-03T02:30:32.387Z,0.00
2018-07-03T02:31:32.305Z,0.00
2018-07-03T02:32:32.233Z,0.00
2018-07-03T02:33:32.149Z,0.00
2018-07-03T02:34:32.081Z,0.00
2018-07-03T02:35:31.995Z,0.00
2018-07-03T02:36:31.921Z,0.00
2018-07-03T02:37:31.844Z,0.00
2018-07-03T02:38:31.770Z,0.00
2018-07-03T02:39:31.690Z,0.00
2018-07-03T02:40:31.619Z,0.00
2018-07-03T02:41:31.534Z,0.00
2018-07-03T02:42:31.464Z,0.00
2018-07-03T02:43:31.381Z,0.00
2018-07-03T02:44:31.311Z,0.00
2018-07-03T02:45:31.225Z,0.00
2018-07-03T02:46:31.151Z,0.00
2018-07-03T02:47:31.071Z,0.00
2018-07-03T02:48:31.000Z,0.00
2018-07-03T02:49:30.917Z,0.00
2018-07-03T02:50:30.856Z,4.00
2018-07-03T02:51:30.766Z,0.00
2018-07-03T02:52:30.696Z,0.00
2018-07-03T02:53:30.608Z,0.00
2018-07-03T02:54:30.539Z,4.00
2018-07-03T02:55:30.454Z,0.00
2018-07-03T02:56:30.383Z,0.00
2018-07-03T02:57:30.301Z,4.00
2018-07-03T02:58:30.228Z,0.00
2018-07-03T02:59:30.147Z,4.00
2018-07-03T03:00:30.076Z,0.00
2018-07-03T03:01:29.991Z,4.00
2018-07-03T03:02:29.921Z,4.00
2018-07-03T03:03:29.836Z,4.00
2018-07-03T03:04:29.769Z,4.00
2018-07-03T03:05:29.686Z,4.00
2018-07-03T03:06:29.612Z,8.00
2018-07-03T03:07:29.527Z,4.00
2018-07-03T03:08:29.461Z,4.00
2018-07-03T03:09:29.369Z,8.00
2018-07-03T03:10:29.401Z,8.00
2018-07-03T03:11:29.216Z,8.00
2018-07-03T03:12:29.149Z,8.00
2018-07-03T03:13:29.065Z,12.00
2018-07-03T03:14:29.017Z,12.00
2018-07-03T03:15:28.909Z,12.00
2018-07-03T03:16:28.925Z,16.00
2018-07-03T03:17:28.752Z,16.00
2018-07-03T03:18:28.736Z,16.00
2018-07-03T03:19:28.598Z,16.00
2018-07-03T03:20:28.542Z,20.00
2018-07-03T03:21:28.443Z,20.00
2018-07-03T03:22:28.402Z,20.00
2018-07-03T03:23:28.289Z,24.00
2018-07-03T03:24:28.261Z,24.00
2018-07-03T03:25:28.133Z,24.00
2018-07-03T03:26:28.171Z,28.00
2018-07-03T03:27:27.984Z,28.00
2018-07-03T03:28:27.911Z,28.00
2018-07-03T03:29:27.823Z,32.00
2018-07-03T03:30:27.787Z,32.00
2018-07-03T03:31:27.672Z,32.00
2018-07-03T03:32:27.699Z,36.00
2018-07-03T03:33:27.513Z,36.00
2018-07-03T03:34:27.505Z,36.00
2018-07-03T03:35:27.359Z,40.00
2018-07-03T03:36:27.315Z,40.00
2018-07-03T03:37:27.205Z,44.00
2018-07-03T03:38:27.134Z,44.00
2018-07-03T03:39:27.052Z,44.00
2018-07-03T03:40:27.034Z,48.00
2018-07-03T03:41:26.897Z,52.00
2018-07-03T03:42:26.829Z,52.00
2018-07-03T03:43:26.745Z,52.00
2018-07-03T03:44:26.752Z,56.00
2018-07-03T03:45:26.592Z,56.00
2018-07-03T03:46:26.561Z,60.00
2018-07-03T03:47:26.427Z,60.00
2018-07-03T03:48:26.363Z,60.00
2018-07-03T03:49:26.273Z,64.00
2018-07-03T03:50:26.207Z,64.00
2018-07-03T03:51:26.120Z,64.00
2018-07-03T03:52:26.089Z,64.00
2018-07-03T03:53:26.006Z,72.00
2018-07-03T03:54:25.998Z,72.00
2018-07-03T03:55:25.814Z,72.00
2018-07-03T03:56:25.807Z,72.00
2018-07-03T03:57:25.656Z,76.00
2018-07-03T03:58:25.617Z,76.00
2018-07-03T03:59:25.500Z,76.00
2018-07-03T04:00:25.534Z,76.00
2018-07-03T04:01:25.343Z,80.00
2018-07-03T04:02:25.337Z,84.00
2018-07-03T04:03:25.194Z,84.00
2018-07-03T04:04:25.141Z,84.00
2018-07-03T04:05:25.035Z,84.00
2018-07-03T04:06:25.052Z,84.00
2018-07-03T04:07:24.888Z,88.00
2018-07-03T04:08:24.860Z,92.00
2018-07-03T04:09:24.724Z,92.00
2018-07-03T04:10:24.656Z,92.00
2018-07-03T04:11:24.574Z,92.00
2018-07-03T04:12:24.503Z,92.00
2018-07-03T04:13:24.413Z,96.00
2018-07-03T04:14:24.347Z,96.00
2018-07-03T04:15:24.259Z,100.00
2018-07-03T04:16:24.195Z,100.00
2018-07-03T04:17:24.105Z,100.00
2018-07-03T04:18:24.107Z,100.00
2018-07-03T04:19:23.948Z,104.00
2018-07-03T04:20:23.914Z,104.00
2018-07-03T04:21:23.791Z,104.00
2018-07-03T04:22:23.825Z,108.00
2018-07-03T04:23:23.675Z,112.00
2018-07-03T04:24:23.566Z,112.00
2018-07-03T04:25:23.481Z,112.00
2018-07-03T04:26:23.417Z,116.00
2018-07-03T04:27:23.331Z,116.00
2018-07-03T04:28:23.257Z,116.00
2018-07-03T04:29:23.174Z,116.00
2018-07-03T04:30:23.104Z,120.00
2018-07-03T04:31:23.021Z,116.00
2018-07-03T04:32:22.942Z,120.00
2018-07-03T04:33:22.861Z,124.00
2018-07-03T04:34:22.793Z,120.00
2018-07-03T04:35:22.707Z,124.00
2018-07-03T04:36:22.653Z,124.00
2018-07-03T04:37:22.551Z,124.00
2018-07-03T04:38:22.481Z,128.00
2018-07-03T04:39:22.396Z,132.00
2018-07-03T04:40:22.318Z,132.00
2018-07-03T04:41:22.343Z,132.00
2018-07-03T04:42:22.227Z,132.00
2018-07-03T04:43:22.085Z,132.00
2018-07-03T04:44:22.124Z,136.00
2018-07-03T04:45:21.981Z,136.00
2018-07-03T04:46:22.150Z,136.00
2018-07-03T04:47:21.948Z,140.00
2018-07-03T04:48:21.968Z,140.00
2018-07-03T04:49:21.621Z,144.00
2018-07-03T04:50:21.745Z,140.00
2018-07-03T04:51:21.705Z,140.00
2018-07-03T04:52:21.647Z,144.00
2018-07-03T04:53:21.616Z,140.00
2018-07-03T04:54:21.487Z,148.00
2018-07-03T04:55:21.200Z,148.00
2018-07-03T04:56:21.382Z,148.00
2018-07-03T04:57:21.341Z,148.00
2018-07-03T04:58:21.027Z,148.00
2018-07-03T04:59:20.907Z,152.00
2018-07-03T05:00:20.770Z,152.00
2018-07-03T05:01:20.701Z,156.00
2018-07-03T05:02:20.614Z,152.00
2018-07-03T05:03:20.612Z,156.00
2018-07-03T05:04:20.459Z,156.00
2018-07-03T05:05:20.391Z,160.00
2018-07-03T05:06:20.307Z,160.00
2018-07-03T05:07:20.237Z,160.00
2018-07-03T05:08:20.153Z,160.00
2018-07-03T05:09:20.137Z,164.00
2018-07-03T05:10:20.013Z,168.00
2018-07-03T05:11:19.946Z,168.00
2018-07-03T05:12:19.844Z,172.00
2018-07-03T05:13:19.856Z,172.00
2018-07-03T05:14:19.689Z,168.00
2018-07-03T05:15:19.667Z,172.00
2018-07-03T05:16:19.536Z,176.00
2018-07-03T05:17:19.582Z,172.00
2018-07-03T05:18:19.381Z,176.00
2018-07-03T05:19:19.382Z,180.00
2018-07-03T05:20:19.226Z,192.00
2018-07-03T05:21:19.191Z,200.00
2018-07-03T05:22:19.075Z,212.00
2018-07-03T05:23:19.104Z,220.00
2018-07-03T05:24:18.918Z,228.00
2018-07-03T05:25:19.940Z,244.00
2018-07-03T05:26:18.764Z,256.00
2018-07-03T05:27:20.772Z,264.00
2018-07-03T05:28:18.624Z,260.00
2018-07-03T05:29:19.554Z,276.00
2018-07-03T05:30:18.456Z,276.00
2018-07-03T05:31:18.444Z,280.00
2018-07-03T05:32:18.308Z,288.00
2018-07-03T05:33:18.248Z,292.00
2018-07-03T05:34:18.148Z,296.00
2018-07-03T05:35:18.161Z,296.00
2018-07-03T05:36:17.997Z,300.00
2018-07-03T05:37:17.991Z,308.00
2018-07-03T05:38:17.836Z,312.00
2018-07-03T05:39:17.877Z,320.00
2018-07-03T05:40:17.689Z,324.00
2018-07-03T05:41:17.685Z,328.00
2018-07-03T05:42:17.535Z,328.00
2018-07-03T05:43:17.495Z,340.00
2018-07-03T05:44:17.381Z,356.00
2018-07-03T05:45:17.405Z,376.00
2018-07-03T05:46:17.235Z,392.00
2018-07-03T05:47:17.418Z,408.00
2018-07-03T05:48:17.076Z,424.00
2018-07-03T05:49:17.019Z,440.00
2018-07-03T05:50:16.922Z,460.00
2018-07-03T05:51:16.931Z,480.00
2018-07-03T05:52:16.776Z,508.00
2018-07-03T05:53:16.836Z,532.00
2018-07-03T05:54:16.632Z,556.00
2018-07-03T05:55:16.651Z,580.00
2018-07-03T05:56:16.512Z,596.00
2018-07-03T05:57:16.462Z,612.00
2018-07-03T05:58:16.312Z,632.00
2018-07-03T05:59:16.268Z,648.00
2018-07-03T06:00:16.159Z,668.00
2018-07-03T06:01:16.178Z,676.00
2018-07-03T06:02:16.007Z,680.00
2018-07-03T06:03:15.981Z,680.00
2018-07-03T06:04:15.854Z,680.00
2018-07-03T06:05:15.895Z,672.00
2018-07-03T06:06:15.702Z,664.00
2018-07-03T06:07:15.704Z,660.00
2018-07-03T06:08:15.551Z,660.00
2018-07-03T06:09:15.591Z,664.00
2018-07-03T06:10:15.402Z,664.00
2018-07-03T06:11:15.423Z,668.00
2018-07-03T06:12:15.248Z,668.00
2018-07-03T06:13:15.235Z,676.00
2018-07-03T06:14:15.093Z,676.00
2018-07-03T06:15:15.041Z,684.00
2018-07-03T06:16:14.968Z,684.00
2018-07-03T06:17:14.953Z,688.00
2018-07-03T06:18:14.792Z,688.00
2018-07-03T06:19:14.762Z,688.00
2018-07-03T06:20:14.639Z,680.00
2018-07-03T06:21:14.670Z,680.00
2018-07-03T06:22:14.492Z,676.00
2018-07-03T06:23:14.476Z,672.00
2018-07-03T06:24:14.339Z,668.00
2018-07-03T06:25:14.270Z,660.00
2018-07-03T06:26:14.187Z,660.00
2018-07-03T06:27:14.199Z,660.00
2018-07-03T06:28:14.037Z,660.00
2018-07-03T06:29:14.011Z,664.00
2018-07-03T06:30:13.891Z,664.00
2018-07-03T06:31:13.917Z,668.00
2018-07-03T06:32:13.736Z,668.00
2018-07-03T06:33:13.726Z,668.00
2018-07-03T06:34:13.585Z,668.00
2018-07-03T06:35:13.535Z,668.00
2018-07-03T06:36:13.429Z,668.00
2018-07-03T06:37:13.446Z,668.00
2018-07-03T06:38:13.283Z,672.00
2018-07-03T06:39:13.253Z,672.00
2018-07-03T06:40:13.130Z,672.00
2018-07-03T06:41:13.166Z,676.00
2018-07-03T06:42:12.987Z,684.00
2018-07-03T06:43:12.972Z,688.00
2018-07-03T06:44:12.833Z,692.00
2018-07-03T06:45:12.960Z,696.00
2018-07-03T06:46:12.684Z,700.00
2018-07-03T06:47:12.691Z,704.00
2018-07-03T06:48:12.537Z,708.00
2018-07-03T06:49:12.499Z,712.00
2018-07-03T06:50:12.388Z,720.00
2018-07-03T06:51:12.411Z,720.00
2018-07-03T06:52:12.237Z,724.00
2018-07-03T06:53:12.216Z,732.00
2018-07-03T06:54:12.087Z,736.00
2018-07-03T06:55:12.131Z,740.00
2018-07-03T06:56:11.936Z,744.00
2018-07-03T06:57:11.938Z,752.00
2018-07-03T06:58:11.790Z,756.00
2018-07-03T06:59:11.748Z,764.00
2018-07-03T07:00:11.636Z,776.00
2018-07-03T07:01:11.658Z,788.00
2018-07-03T07:02:11.492Z,800.00
2018-07-03T07:03:11.466Z,808.00
2018-07-03T07:04:11.342Z,820.00
2018-07-03T07:05:11.380Z,824.00
2018-07-03T07:06:11.194Z,832.00
2018-07-03T07:07:11.185Z,844.00
2018-07-03T07:08:11.049Z,860.00
2018-07-03T07:09:11.013Z,876.00
2018-07-03T07:10:10.898Z,892.00
2018-07-03T07:11:10.905Z,912.00
2018-07-03T07:12:10.750Z,936.00
2018-07-03T07:13:10.711Z,956.00
2018-07-03T07:14:10.602Z,980.00
2018-07-03T07:15:10.625Z,1008.00
2018-07-03T07:16:10.460Z,1036.00
2018-07-03T07:17:10.433Z,1064.00
2018-07-03T07:18:10.307Z,1096.00
2018-07-03T07:19:10.345Z,1128.00
2018-07-03T07:20:10.165Z,1164.00
2018-07-03T07:21:10.152Z,1208.00
2018-07-03T07:22:10.013Z,1256.00
2018-07-03T07:23:10.011Z,1312.00
2018-07-03T07:24:09.867Z,1380.00
2018-07-03T07:25:09.872Z,1444.00
2018-07-03T07:26:09.722Z,1508.00
2018-07-03T07:27:09.678Z,1564.00
2018-07-03T07:28:09.575Z,1624.00
2018-07-03T07:29:09.633Z,1692.00
2018-07-03T07:30:09.428Z,1748.00
2018-07-03T07:31:09.399Z,1808.00
2018-07-03T07:32:09.281Z,1864.00
2018-07-03T07:33:09.308Z,1908.00
2018-07-03T07:34:09.136Z,1944.00
2018-07-03T07:35:09.121Z,1976.00
2018-07-03T07:36:08.990Z,2004.00
2018-07-03T07:37:09.028Z,2028.00
2018-07-03T07:38:08.844Z,2052.00
2018-07-03T07:39:08.837Z,2072.00
2018-07-03T07:40:08.699Z,2096.00
2018-07-03T07:41:08.652Z,2124.00
2018-07-03T07:42:08.554Z,2148.00
2018-07-03T07:43:08.557Z,2172.00
2018-07-03T07:44:08.408Z,2200.00
2018-07-03T07:45:08.367Z,2224.00
2018-07-03T07:46:08.265Z,2248.00
2018-07-03T07:47:08.281Z,2272.00
2018-07-03T07:48:08.123Z,2296.00
2018-07-03T07:49:08.339Z,2316.00
2018-07-03T07:50:07.985Z,2336.00
2018-07-03T07:51:07.998Z,2356.00
2018-07-03T07:52:07.851Z,2380.00
2018-07-03T07:53:07.805Z,2400.00
2018-07-03T07:54:07.691Z,2424.00
2018-07-03T07:55:07.718Z,2432.00
2018-07-03T07:56:07.548Z,2448.00
2018-07-03T07:57:07.484Z,2452.00
2018-07-03T07:58:07.404Z,2468.00
2018-07-03T07:59:07.441Z,2352.00
2018-07-03T08:00:07.265Z,2380.00
2018-07-03T08:01:07.243Z,2400.00
2018-07-03T08:02:07.117Z,2416.00
2018-07-03T08:03:07.157Z,2436.00
2018-07-03T08:04:06.980Z,2448.00
2018-07-03T08:05:06.918Z,2476.00
2018-07-03T08:06:06.837Z,2488.00
2018-07-03T08:07:06.874Z,2504.00
2018-07-03T08:08:06.699Z,2516.00
2018-07-03T08:09:06.682Z,2532.00
2018-07-03T08:10:06.554Z,2544.00
2018-07-03T08:11:06.593Z,2560.00
2018-07-03T08:12:06.414Z,2576.00
2018-07-03T08:13:06.401Z,2580.00
2018-07-03T08:14:06.273Z,2584.00
2018-07-03T08:15:06.314Z,2588.00
2018-07-03T08:16:06.132Z,2592.00
2018-07-03T08:17:06.120Z,2596.00
2018-07-03T08:18:05.993Z,2600.00
2018-07-03T08:19:06.041Z,2600.00
2018-07-03T08:20:05.852Z,2608.00
2018-07-03T08:21:05.843Z,2612.00
2018-07-03T08:22:05.714Z,2624.00
2018-07-03T08:23:05.751Z,2628.00
2018-07-03T08:24:05.573Z,2632.00
2018-07-03T08:25:05.512Z,2640.00
2018-07-03T08:26:05.434Z,2648.00
2018-07-03T08:27:05.470Z,2660.00
2018-07-03T08:28:05.296Z,2664.00
2018-07-03T08:29:05.283Z,2676.00
2018-07-03T08:30:05.156Z,2680.00
2018-07-03T08:31:05.188Z,2688.00
2018-07-03T08:32:05.019Z,2696.00
2018-07-03T08:33:04.997Z,2708.00
2018-07-03T08:34:04.946Z,2720.00
2018-07-03T08:35:05.732Z,2724.00
2018-07-03T08:36:04.741Z,2732.00
2018-07-03T08:37:04.718Z,2736.00
2018-07-03T08:38:04.607Z,2740.00
2018-07-03T08:39:04.633Z,2744.00
2018-07-03T08:40:04.464Z,2752.00
2018-07-03T08:41:04.437Z,2764.00
2018-07-03T08:42:04.330Z,2772.00
2018-07-03T08:43:04.348Z,2772.00
2018-07-03T08:44:04.190Z,2784.00
2018-07-03T08:45:04.156Z,2784.00
2018-07-03T08:46:04.052Z,2784.00
2018-07-03T08:47:04.068Z,2792.00
2018-07-03T08:48:03.917Z,2792.00
2018-07-03T08:49:03.876Z,2788.00
2018-07-03T08:50:03.786Z,2792.00
2018-07-03T08:51:03.785Z,2792.00
2018-07-03T08:52:03.702Z,2796.00
2018-07-03T08:53:03.595Z,2792.00
2018-07-03T08:54:03.510Z,2792.00
2018-07-03T08:55:03.513Z,2788.00
2018-07-03T08:56:03.376Z,2788.00
2018-07-03T08:57:03.418Z,2788.00
2018-07-03T08:58:03.239Z,2784.00
2018-07-03T08:59:03.227Z,2788.00
2018-07-03T09:00:03.102Z,2792.00
2018-07-03T09:01:03.137Z,2792.00
2018-07-03T09:02:02.964Z,2792.00
2018-07-03T09:03:02.945Z,2788.00
2018-07-03T09:04:02.831Z,2788.00
2018-07-03T09:05:02.858Z,2788.00
2018-07-03T09:06:02.696Z,2788.00
2018-07-03T09:07:02.664Z,2788.00
2018-07-03T09:08:02.563Z,2784.00
2018-07-03T09:09:02.577Z,2776.00
2018-07-03T09:10:02.431Z,2772.00
2018-07-03T09:11:02.384Z,2768.00
2018-07-03T09:12:02.290Z,2756.00
2018-07-03T09:13:02.295Z,2756.00
2018-07-03T09:14:02.161Z,2748.00
2018-07-03T09:15:02.206Z,2724.00
2018-07-03T09:16:02.029Z,2708.00
2018-07-03T09:17:02.014Z,2696.00
2018-07-03T09:18:01.917Z,2696.00
2018-07-03T09:19:01.926Z,2688.00
2018-07-03T09:20:01.755Z,2672.00
2018-07-03T09:21:01.734Z,2668.00
2018-07-03T09:22:01.624Z,2660.00
2018-07-03T09:23:01.645Z,2656.00
2018-07-03T09:24:01.488Z,2648.00
2018-07-03T09:25:01.453Z,2636.00
2018-07-03T09:26:01.357Z,2624.00
2018-07-03T09:27:01.364Z,2612.00
2018-07-03T09:28:01.222Z,2604.00
2018-07-03T09:29:01.171Z,2592.00
2018-07-03T09:30:01.090Z,2568.00
2018-07-03T09:31:01.086Z,2556.00
2018-07-03T09:32:00.957Z,2540.00
2018-07-03T09:33:00.991Z,2532.00
2018-07-03T09:34:00.820Z,2508.00
2018-07-03T09:35:00.809Z,2488.00
2018-07-03T09:36:00.692Z,2472.00
2018-07-03T09:37:00.714Z,2456.00
2018-07-03T09:38:00.557Z,2432.00
2018-07-03T09:39:00.522Z,2412.00
2018-07-03T09:40:00.427Z,2408.00
2018-07-03T09:41:00.433Z,2396.00
2018-07-03T09:42:00.297Z,2388.00
2018-07-03T09:43:00.344Z,2376.00
2018-07-03T09:44:00.160Z,2372.00
2018-07-03T09:45:00.153Z,2356.00
2018-07-03T09:46:00.029Z,2344.00
2018-07-03T09:47:00.063Z,2340.00
2018-07-03T09:47:59.899Z,2324.00
2018-07-03T09:48:59.872Z,2316.00
2018-07-03T09:49:59.765Z,2312.00
2018-07-03T09:50:59.784Z,2316.00
2018-07-03T09:51:59.630Z,2308.00
2018-07-03T09:52:59.593Z,2300.00
2018-07-03T09:53:59.505Z,2304.00
2018-07-03T09:54:59.532Z,2300.00
2018-07-03T09:55:59.372Z,2300.00
2018-07-03T09:56:59.315Z,2300.00
2018-07-03T09:57:59.239Z,2300.00
2018-07-03T09:58:59.181Z,2304.00
2018-07-03T09:59:59.107Z,2296.00
2018-07-03T10:00:59.048Z,2292.00
2018-07-03T10:01:58.976Z,2284.00
2018-07-03T10:02:58.920Z,2296.00
2018-07-03T10:03:58.846Z,2292.00
2018-07-03T10:04:58.787Z,2296.00
2018-07-03T10:05:58.714Z,2296.00
2018-07-03T10:06:58.658Z,2296.00
2018-07-03T10:07:58.584Z,2284.00
2018-07-03T10:08:58.531Z,2276.00
2018-07-03T10:09:58.451Z,2272.00
2018-07-03T10:10:58.397Z,2272.00
2018-07-03T10:11:58.324Z,2272.00
2018-07-03T10:12:58.314Z,2268.00
2018-07-03T10:13:58.193Z,2268.00
2018-07-03T10:14:58.134Z,2264.00
2018-07-03T10:15:58.064Z,2272.00
2018-07-03T10:16:58.006Z,2264.00
2018-07-03T10:17:57.930Z,2280.00
2018-07-03T10:18:57.949Z,2276.00
2018-07-03T10:19:57.799Z,2276.00
2018-07-03T10:20:57.743Z,2260.00
2018-07-03T10:21:57.670Z,2264.00
2018-07-03T10:22:57.616Z,2264.00
2018-07-03T10:23:57.539Z,2264.00
2018-07-03T10:24:57.482Z,2260.00
2018-07-03T10:25:57.411Z,2260.00
2018-07-03T10:26:57.351Z,2264.00
2018-07-03T10:27:57.278Z,2264.00
2018-07-03T10:28:57.221Z,2264.00
2018-07-03T10:29:57.149Z,2260.00
2018-07-03T10:30:57.093Z,2260.00
2018-07-03T10:31:57.022Z,2256.00
2018-07-03T10:32:56.964Z,2260.00
2018-07-03T10:33:56.890Z,2248.00
2018-07-03T10:34:56.832Z,2244.00
2018-07-03T10:35:56.762Z,2252.00
2018-07-03T10:36:56.700Z,2248.00
2018-07-03T10:37:56.630Z,2248.00
2018-07-03T10:38:56.576Z,2240.00
2018-07-03T10:39:56.501Z,2236.00
2018-07-03T10:40:56.449Z,2232.00
2018-07-03T10:41:56.372Z,2224.00
2018-07-03T10:42:56.314Z,2228.00
2018-07-03T10:43:56.238Z,2216.00
2018-07-03T10:44:56.187Z,2220.00
2018-07-03T10:45:56.112Z,2212.00
2018-07-03T10:46:56.060Z,2212.00
2018-07-03T10:47:55.982Z,2212.00
2018-07-03T10:48:55.927Z,2200.00
2018-07-03T10:49:55.853Z,2200.00
2018-07-03T10:50:55.809Z,2196.00
2018-07-03T10:51:55.730Z,2192.00
2018-07-03T10:52:55.665Z,2188.00
2018-07-03T10:53:55.598Z,2172.00
2018-07-03T10:54:55.546Z,2168.00
2018-07-03T10:55:55.468Z,2160.00
2018-07-03T10:56:55.411Z,2152.00
2018-07-03T10:57:55.339Z,2148.00
2018-07-03T10:58:55.286Z,2144.00
2018-07-03T10:59:55.211Z,2136.00
2018-07-03T11:00:55.157Z,2128.00
2018-07-03T11:01:55.084Z,2116.00
2018-07-03T11:02:55.027Z,2112.00
2018-07-03T11:03:54.958Z,2100.00
2018-07-03T11:04:54.899Z,2096.00
2018-07-03T11:05:54.824Z,2088.00
2018-07-03T11:06:54.773Z,2084.00
2018-07-03T11:07:54.701Z,2076.00
2018-07-03T11:08:54.639Z,2076.00
2018-07-03T11:09:54.569Z,2064.00
2018-07-03T11:10:54.512Z,2060.00
2018-07-03T11:11:54.443Z,2048.00
2018-07-03T11:12:54.386Z,2048.00
2018-07-03T11:13:54.354Z,2040.00
2018-07-03T11:14:54.263Z,2036.00
2018-07-03T11:15:54.182Z,2024.00
2018-07-03T11:16:54.130Z,2016.00
2018-07-03T11:17:54.056Z,2008.00
2018-07-03T11:18:54.007Z,2012.00
2018-07-03T11:19:54.055Z,2004.00
2018-07-03T11:20:53.872Z,2000.00
2018-07-03T11:21:53.803Z,1988.00
2018-07-03T11:22:53.750Z,1984.00
2018-07-03T11:23:53.673Z,1972.00
2018-07-03T11:24:53.617Z,1960.00
2018-07-03T11:25:53.547Z,1960.00
2018-07-03T11:26:53.490Z,1964.00
2018-07-03T11:27:53.425Z,1948.00
2018-07-03T11:28:53.376Z,1948.00
2018-07-03T11:29:53.289Z,1936.00
2018-07-03T11:30:53.240Z,1936.00
2018-07-03T11:31:53.162Z,1892.00
2018-07-03T11:32:53.119Z,1924.00
2018-07-03T11:33:53.039Z,1924.00
2018-07-03T11:34:52.981Z,1928.00
2018-07-03T11:35:52.910Z,1928.00
2018-07-03T11:36:52.853Z,1924.00
2018-07-03T11:37:52.782Z,1920.00
2018-07-03T11:38:52.726Z,1920.00
2018-07-03T11:39:52.654Z,1920.00
2018-07-03T11:40:52.598Z,1920.00
2018-07-03T11:41:52.532Z,1908.00
2018-07-03T11:42:52.473Z,1912.00
2018-07-03T11:43:52.404Z,1908.00
2018-07-03T11:44:52.402Z,1912.00
2018-07-03T11:45:52.273Z,1904.00
2018-07-03T11:46:52.219Z,1900.00
2018-07-03T11:47:52.139Z,1900.00
2018-07-03T11:48:52.096Z,1820.00
2018-07-03T11:49:52.019Z,1868.00
2018-07-03T11:50:51.965Z,1892.00
2018-07-03T11:51:51.897Z,1892.00
2018-07-03T11:52:51.833Z,1892.00
2018-07-03T11:53:51.765Z,1892.00
2018-07-03T11:54:51.712Z,1896.00
2018-07-03T11:55:51.637Z,1888.00
2018-07-03T11:56:51.580Z,1904.00
2018-07-03T11:57:51.513Z,1908.00
2018-07-03T11:58:51.454Z,1908.00
2018-07-03T11:59:51.382Z,1912.00
2018-07-03T12:00:51.328Z,1916.00
2018-07-03T12:01:51.257Z,1916.00
2018-07-03T12:02:51.207Z,1920.00
2018-07-03T12:03:51.134Z,1924.00
2018-07-03T12:04:51.073Z,1920.00
2018-07-03T12:05:51.004Z,1924.00
2018-07-03T12:06:50.945Z,1924.00
2018-07-03T12:07:50.880Z,1928.00
2018-07-03T12:08:50.825Z,1928.00
2018-07-03T12:09:50.790Z,1928.00
2018-07-03T12:10:50.689Z,1936.00
2018-07-03T12:11:50.703Z,1936.00
2018-07-03T12:12:50.563Z,1944.00
2018-07-03T12:13:50.613Z,1940.00
2018-07-03T12:14:50.437Z,1944.00
2018-07-03T12:15:50.420Z,1948.00
2018-07-03T12:16:50.308Z,1948.00
2018-07-03T12:17:50.332Z,1952.00
2018-07-03T12:18:50.183Z,1956.00
2018-07-03T12:19:50.178Z,1960.00
2018-07-03T12:20:50.058Z,1960.00
2018-07-03T12:21:50.060Z,1964.00
2018-07-03T12:22:49.929Z,1964.00
2018-07-03T12:23:49.965Z,1960.00
2018-07-03T12:24:49.802Z,1960.00
2018-07-03T12:25:49.776Z,1956.00
2018-07-03T12:26:49.678Z,1972.00
2018-07-03T12:27:49.686Z,1976.00
2018-07-03T12:28:49.599Z,1976.00
2018-07-03T12:29:49.597Z,1976.00
2018-07-03T12:30:49.425Z,1980.00
2018-07-03T12:31:49.408Z,1976.00